Time;durP1;ratioP1;P1;durP2;ratioP2;P2;SDS_P1;SDS_P2;PMS_P1;PMS_P2;Temp;Humidity;BMP_temperature;BMP_pressure;BME280_temperature;BME280_humidity;BME280_pressure;Samples;Min_cycle;Max_cycle;Signal;HPM_P1;HPM_P2
2022/06/12 00:06:42;;;;;;;9.73;6.38;;;11.80;99.90;;;;;;20984420;28;20066;-52
2022/06/12 00:16:52;;;;;;;9.23;6.05;;;11.70;99.90;;;;;;20829723;28;20053;-56
2022/06/12 00:26:58;;;;;;;10.30;6.73;;;11.90;99.90;;;;;;20793036;28;20107;-49
2022/06/12 00:37:01;;;;;;;14.43;8.15;;;11.70;99.90;;;;;;20859735;28;20076;-51
2022/06/12 00:47:15;;;;;;;9.13;6.30;;;11.70;99.90;;;;;;20873520;28;20601;-52
2022/06/12 00:57:21;;;;;;;12.25;6.43;;;11.90;99.90;;;;;;20965384;28;20516;-52
2022/06/12 01:07:29;;;;;;;9.60;6.47;;;11.90;99.90;;;;;;20967044;28;20045;-47
2022/06/12 01:17:34;;;;;;;9.30;6.85;;;11.80;99.90;;;;;;20980663;28;20040;-56
2022/06/12 01:28:06;;;;;;;7.93;5.60;;;11.90;99.90;;;;;;20980383;28;20454;-51
2022/06/12 01:38:16;;;;;;;7.60;4.35;;;11.70;99.90;;;;;;21057248;28;20040;-50
2022/06/12 01:48:32;;;;;;;8.37;5.40;;;11.60;99.90;;;;;;21045472;28;20070;-55
2022/06/12 01:58:46;;;;;;;7.90;4.80;;;11.50;99.90;;;;;;21061450;28;20028;-56
2022/06/12 02:08:59;;;;;;;5.28;3.55;;;11.50;99.90;;;;;;21060458;28;20040;-55
2022/06/12 02:19:14;;;;;;;6.65;3.38;;;11.40;99.90;;;;;;21058772;28;20482;-56
2022/06/12 02:29:22;;;;;;;4.07;2.80;;;11.30;99.90;;;;;;21056286;28;20129;-56
2022/06/12 02:39:30;;;;;;;4.40;2.45;;;11.50;99.90;;;;;;20991322;28;20095;-50
2022/06/12 02:49:34;;;;;;;3.10;1.60;;;11.30;99.90;;;;;;20990453;28;20037;-53
2022/06/12 02:59:56;;;;;;;1.88;1.27;;;11.30;99.90;;;;;;20989918;28;20080;-51
2022/06/12 03:10:04;;;;;;;3.22;1.05;;;11.30;99.90;;;;;;20990387;28;20386;-50
2022/06/12 03:20:11;;;;;;;1.52;1.20;;;11.20;99.90;;;;;;20987768;28;20036;-48
2022/06/12 03:30:20;;;;;;;2.05;1.17;;;11.20;99.90;;;;;;20997458;28;20056;-50
2022/06/12 03:40:47;;;;;;;1.58;0.90;;;11.10;99.90;;;;;;21053290;28;20039;-52
2022/06/12 03:51:15;;;;;;;2.03;1.20;;;11.00;99.90;;;;;;21052507;28;20040;-47
2022/06/12 04:01:18;;;;;;;2.03;1.25;;;11.10;99.90;;;;;;21052733;28;20498;-48
2022/06/12 04:11:23;;;;;;;1.98;1.10;;;11.30;99.90;;;;;;21050885;28;20032;-51
2022/06/12 04:22:12;;;;;;;2.65;1.25;;;11.20;99.90;;;;;;21050417;28;20107;-51
2022/06/12 04:32:15;;;;;;;4.05;1.60;;;11.50;99.90;;;;;;21022135;28;20110;-52
2022/06/12 04:42:21;;;;;;;3.22;1.80;;;11.60;99.90;;;;;;20982484;28;20040;-56
2022/06/12 04:52:26;;;;;;;1.73;1.38;;;11.60;99.90;;;;;;20982861;28;20033;-51
2022/06/12 05:02:29;;;;;;;2.50;1.60;;;11.70;99.90;;;;;;20983197;28;20036;-57
2022/06/12 05:12:31;;;;;;;2.35;1.60;;;11.80;99.90;;;;;;20981702;28;20126;-56
2022/06/12 05:22:34;;;;;;;3.72;1.83;;;11.90;99.90;;;;;;20981304;28;20056;-48
2022/06/12 05:32:37;;;;;;;3.42;2.05;;;12.10;99.90;;;;;;21011477;28;20036;-51
2022/06/12 05:42:40;;;;;;;4.00;2.50;;;12.30;99.90;;;;;;21065487;28;20032;-52
2022/06/12 05:52:43;;;;;;;8.75;5.55;;;12.50;99.90;;;;;;21046678;28;20413;-52
2022/06/12 06:02:46;;;;;;;10.48;6.35;;;12.90;99.90;;;;;;21060691;28;20036;-52
2022/06/12 06:12:49;;;;;;;5.95;4.10;;;13.40;99.90;;;;;;21060079;28;20028;-58
2022/06/12 06:22:53;;;;;;;6.32;4.10;;;17.50;99.90;;;;;;21059891;28;20077;-52
2022/06/12 06:32:57;;;;;;;4.18;3.13;;;21.50;99.90;;;;;;21026409;28;20102;-59
2022/06/12 06:42:59;;;;;;;4.55;3.17;;;24.20;95.10;;;;;;20991367;28;20045;-59
2022/06/12 06:53:02;;;;;;;3.38;2.72;;;24.60;93.10;;;;;;20990550;28;20098;-59
2022/06/12 07:03:06;;;;;;;1.85;1.75;;;27.60;86.90;;;;;;20973140;28;20040;-60
2022/06/12 07:13:09;;;;;;;2.10;1.90;;;29.30;81.00;;;;;;20987747;28;20436;-57
2022/06/12 07:23:14;;;;;;;;;;;30.10;78.00;;;;;;20987864;28;20061;-57
2022/06/12 07:33:17;;;;;;;5.47;2.60;;;30.00;77.70;;;;;;21022723;28;20382;-57
2022/06/12 07:43:22;;;;;;;2.15;2.00;;;30.30;77.80;;;;;;21053622;28;20040;-61
2022/06/12 07:53:26;;;;;;;2.58;2.38;;;30.50;76.60;;;;;;21051976;28;20424;-62
2022/06/12 08:03:31;;;;;;;2.05;1.95;;;30.50;74.80;;;;;;21051353;28;20062;-62
2022/06/12 08:13:34;;;;;;;1.70;1.60;;;;;;;;;;21050953;28;20577;-64
2022/06/12 08:23:50;;;;;;;3.17;1.90;;;29.40;76.20;;;;;;21049338;28;20052;-63
2022/06/12 08:34:01;;;;;;;2.20;2.08;;;28.90;76.30;;;;;;21008721;28;20036;-62
2022/06/12 08:44:15;;;;;;;1.70;1.60;;;28.60;78.20;;;;;;20982913;28;20361;-62
2022/06/12 08:54:34;;;;;;;2.13;1.50;;;28.60;74.70;;;;;;20890662;28;20098;-63
2022/06/12 09:04:37;;;;;;;1.98;1.40;;;28.10;78.30;;;;;;20872734;28;20496;-58
2022/06/12 09:14:52;;;;;;;2.60;1.38;;;27.90;84.60;;;;;;20872276;28;20052;-63
2022/06/12 09:25:17;;;;;;;1.50;1.40;;;27.90;84.90;;;;;;20890876;28;20044;-63
2022/06/12 09:35:28;;;;;;;1.58;1.48;;;27.60;84.80;;;;;;21045525;28;20113;-63
2022/06/12 09:45:56;;;;;;;2.65;2.22;;;27.60;83.20;;;;;;21062617;28;20097;-63
2022/06/12 09:56:05;;;;;;;2.38;2.15;;;27.50;86.70;;;;;;20738770;28;20464;-57
2022/06/12 10:06:24;;;;;;;2.45;2.08;;;27.50;83.20;;;;;;20722118;28;20046;-63
2022/06/12 10:16:53;;;;;;;2.40;2.20;;;27.30;87.30;;;;;;20721047;28;20092;-63
2022/06/12 10:27:08;;;;;;;2.65;2.22;;;27.70;87.50;;;;;;20810439;28;20044;-58
2022/06/12 10:37:27;;;;;;;4.22;2.67;;;27.90;89.10;;;;;;20991607;28;20094;-62
2022/06/12 10:47:31;;;;;;;5.47;2.92;;;27.90;90.30;;;;;;20990341;28;20085;-63
2022/06/12 10:57:47;;;;;;;3.63;2.33;;;27.70;89.90;;;;;;20989806;28;20036;-63
2022/06/12 11:08:02;;;;;;;4.60;3.07;;;28.10;90.40;;;;;;20990313;28;20094;-62
2022/06/12 11:18:20;;;;;;;4.87;3.60;;;27.80;86.10;;;;;;20988375;28;20037;-63
2022/06/12 11:28:51;;;;;;;5.28;2.80;;;27.50;85.40;;;;;;20987553;28;20052;-63
2022/06/12 11:39:29;;;;;;;4.13;2.70;;;27.50;88.50;;;;;;21053031;28;20457;-63
2022/06/12 11:49:35;;;;;;;8.55;2.20;;;27.80;88.40;;;;;;21052782;28;20032;-63
2022/06/12 12:00:08;;;;;;;3.47;2.60;;;27.80;89.90;;;;;;21052075;28;20133;-62
2022/06/12 12:10:26;;;;;;;2.70;2.25;;;27.80;81.80;;;;;;21050945;28;20036;-63
2022/06/12 12:20:37;;;;;;;2.10;1.80;;;27.50;87.30;;;;;;21033630;28;20421;-63
2022/06/12 12:30:42;;;;;;;3.13;2.17;;;27.70;89.50;;;;;;21035848;28;20056;-64
2022/06/12 12:51:23;;;;;;;2.67;2.25;;;27.20;87.80;;;;;;20982533;28;20585;-63
2022/06/12 13:01:39;;;;;;;3.10;2.40;;;27.50;89.20;;;;;;20949646;28;20095;-63
2022/06/12 13:12:01;;;;;;;3.17;2.63;;;27.90;84.60;;;;;;20996968;28;20091;-63
2022/06/12 13:22:07;;;;;;;3.17;2.78;;;28.10;89.10;;;;;;20997012;28;20460;-62
2022/06/12 13:32:21;;;;;;;6.27;2.80;;;28.10;86.00;;;;;;21023699;28;20044;-63
2022/06/12 13:42:28;;;;;;;2.72;2.53;;;28.10;85.30;;;;;;21062744;28;20101;-63
2022/06/12 13:52:36;;;;;;;3.88;3.58;;;28.30;88.80;;;;;;21061858;28;20439;-62
2022/06/12 14:02:41;;;;;;;5.22;3.67;;;28.50;85.60;;;;;;21061198;28;20447;-62
2022/06/12 14:12:44;;;;;;;3.85;3.55;;;28.60;86.90;;;;;;21060480;28;20094;-62
2022/06/12 14:22:49;;;;;;;4.57;3.95;;;29.10;84.80;;;;;;21058034;28;20040;-63
2022/06/12 14:32:52;;;;;;;4.30;3.73;;;29.50;83.30;;;;;;21026238;28;20317;-62
2022/06/12 14:43:33;;;;;;;4.90;4.50;;;29.80;80.60;;;;;;20992481;28;20071;-63
2022/06/12 14:53:37;;;;;;;4.80;4.40;;;30.30;80.70;;;;;;20990011;28;20094;-62
2022/06/12 15:03:40;;;;;;;5.15;4.18;;;30.50;80.30;;;;;;20989191;28;20502;-63
2022/06/12 15:13:43;;;;;;;6.25;4.30;;;30.60;79.30;;;;;;20988604;28;20036;-62
2022/06/12 15:23:46;;;;;;;5.65;4.15;;;30.70;80.40;;;;;;20987810;28;20048;-62
2022/06/12 15:33:48;;;;;;;10.82;4.70;;;30.50;80.20;;;;;;21027024;28;20105;-62
2022/06/12 15:43:52;;;;;;;5.38;4.93;;;30.30;80.70;;;;;;21052536;28;20025;-62
2022/06/12 15:53:57;;;;;;;4.70;4.25;;;30.20;77.70;;;;;;21051324;28;20040;-62
2022/06/12 16:03:59;;;;;;;4.93;4.00;;;29.70;79.30;;;;;;21051593;28;20394;-62
2022/06/12 16:14:02;;;;;;;4.05;3.53;;;27.30;82.90;;;;;;21050675;28;20043;-60
2022/06/12 16:24:05;;;;;;;4.07;3.67;;;25.10;85.80;;;;;;21049902;28;20069;-59
2022/06/12 16:34:08;;;;;;;3.60;3.10;;;23.80;90.10;;;;;;21006546;28;20032;-60
2022/06/12 16:44:15;;;;;;;4.18;3.78;;;23.40;91.10;;;;;;20982305;28;20086;-59
2022/06/12 16:54:18;;;;;;;6.22;4.47;;;23.00;91.10;;;;;;20982796;28;20459;-59
2022/06/12 17:04:21;;;;;;;7.90;4.30;;;21.60;93.10;;;;;;20982437;28;20040;-59
2022/06/12 17:14:24;;;;;;;4.63;3.53;;;20.30;95.90;;;;;;20965457;28;20089;-59
2022/06/12 17:24:27;;;;;;;3.95;3.55;;;19.30;97.10;;;;;;20981169;28;20044;-59
2022/06/12 17:34:29;;;;;;;5.78;3.25;;;18.50;99.70;;;;;;21026878;28;20040;-58
2022/06/12 17:44:33;;;;;;;5.45;4.00;;;17.90;99.90;;;;;;21032404;28;20382;-59
2022/06/12 17:54:35;;;;;;;6.03;3.70;;;17.50;99.90;;;;;;21040286;28;20028;-59
2022/06/12 18:04:41;;;;;;;5.30;4.20;;;16.90;99.90;;;;;;21061481;28;20032;-59
2022/06/12 18:25:06;;;;;;;5.32;4.15;;;16.50;99.90;;;;;;21059937;28;20554;-59
2022/06/12 18:35:09;;;;;;;3.65;3.20;;;16.20;99.90;;;;;;21007632;28;20067;-59
2022/06/12 18:45:12;;;;;;;6.85;2.88;;;15.90;99.90;;;;;;20974876;28;20033;-59
2022/06/12 18:55:15;;;;;;;6.05;3.22;;;15.80;99.90;;;;;;20973925;28;20036;-59
2022/06/12 19:05:18;;;;;;;10.73;3.35;;;15.50;99.90;;;;;;20973181;28;20037;-59
2022/06/12 19:15:20;;;;;;;5.53;2.58;;;15.40;99.90;;;;;;20972646;28;20029;-59
2022/06/12 19:25:23;;;;;;;6.80;4.75;;;15.00;99.90;;;;;;20954692;28;20110;-58
2022/06/12 19:35:27;;;;;;;4.55;3.92;;;14.90;99.90;;;;;;21024571;28;20054;-52
2022/06/12 19:45:32;;;;;;;6.35;4.22;;;14.90;99.90;;;;;;21037213;28;20044;-58
2022/06/12 19:55:36;;;;;;;9.05;5.97;;;14.80;99.90;;;;;;21052449;28;20085;-51
2022/06/12 20:16:00;;;;;;;11.82;7.68;;;14.60;99.90;;;;;;21050435;28;20048;-58
2022/06/12 20:26:03;;;;;;;12.55;9.23;;;14.70;99.90;;;;;;21050202;28;20044;-49
2022/06/12 20:36:06;;;;;;;11.93;8.95;;;14.60;99.90;;;;;;21050067;28;20028;-50
2022/06/12 20:46:11;;;;;;;11.70;8.65;;;14.50;99.90;;;;;;21049853;28;20032;-58
2022/06/12 20:56:13;;;;;;;13.50;9.25;;;14.50;99.90;;;;;;21049985;28;20474;-50
2022/06/12 21:06:16;;;;;;;15.85;9.60;;;14.40;99.90;;;;;;21049334;28;20066;-50
2022/06/12 21:16:19;;;;;;;18.33;10.27;;;14.30;99.90;;;;;;21048538;28;20028;-58
2022/06/12 21:26:22;;;;;;;14.32;9.40;;;14.40;99.90;;;;;;21053407;28;20048;-58
2022/06/12 21:36:24;;;;;;;13.38;10.10;;;14.40;99.90;;;;;;21001708;28;20040;-48
2022/06/12 21:46:28;;;;;;;12.63;9.00;;;14.30;99.90;;;;;;20997697;28;20540;-58
2022/06/12 21:56:31;;;;;;;14.80;9.73;;;14.30;99.90;;;;;;20995352;28;20036;-58
2022/06/12 22:06:34;;;;;;;13.27;9.70;;;14.20;99.90;;;;;;20994466;28;20036;-58
2022/06/12 22:16:36;;;;;;;9.40;6.97;;;14.20;99.90;;;;;;20993724;28;20032;-49
2022/06/12 22:26:39;;;;;;;9.38;6.38;;;14.20;99.90;;;;;;20993160;28;20049;-58
2022/06/12 22:36:43;;;;;;;12.98;8.77;;;14.20;99.90;;;;;;21055236;28;20040;-49
2022/06/12 22:46:46;;;;;;;12.25;8.00;;;14.10;99.90;;;;;;21058457;28;20082;-49
2022/06/12 22:56:50;;;;;;;11.52;8.75;;;14.10;99.90;;;;;;21057555;28;20040;-58
2022/06/12 23:06:52;;;;;;;10.35;8.32;;;14.00;99.90;;;;;;21056567;28;20097;-51
2022/06/12 23:16:55;;;;;;;11.13;8.82;;;14.00;99.90;;;;;;21057130;28;20032;-51
2022/06/12 23:26:58;;;;;;;12.88;9.55;;;13.90;99.90;;;;;;21055002;28;20101;-59
2022/06/12 23:37:00;;;;;;;13.43;10.60;;;13.70;99.90;;;;;;20988605;28;20094;-58
2022/06/12 23:47:03;;;;;;;13.35;10.50;;;13.60;99.90;;;;;;20986692;28;20033;-59
2022/06/12 23:57:06;;;;;;;14.60;10.32;;;13.60;99.90;;;;;;20985341;28;20753;-51
